sensor_id;sensor_type;location;lat;lon;timestamp;temperature;humidity
49901;DHT22;35789;48.414;12.768;2023-02-28T00:00:00;-1.4;99.9
49901;DHT22;35789;48.414;12.768;2023-02-28T00:05:00;-1.5;99.9
49901;DHT22;35789;48.414;12.768;2023-02-28T00:10:00;-1.4;99.9
49901;DHT22;35789;48.414;12.768;2023-02-28T00:15:00;-1.4;99.9
49901;DHT22;35789;48.414;12.768;2023-02-28T00:20:00;-1.4;99.9
49901;DHT22;35789;48.414;12.768;2023-02-28T00:25:00;-1.4;99.9
49901;DHT22;35789;48.414;12.768;2023-02-28T00:30:00;-1.3;99.9
49901;DHT22;35789;48.414;12.768;2023-02-28T00:35:00;-1.4;99.9
49901;DHT22;35789;48.414;12.768;2023-02-28T00:40:00;-1.4;99.9
49901;DHT22;35789;48.414;12.768;2023-02-28T00:45:00;-1.4;99.9
49901;DHT22;35789;48.414;12.768;2023-02-28T00:50:00;-1.4;99.9
49901;DHT22;35789;48.414;12.768;2023-02-28T00:55:00;-1.5;99.9
49901;DHT22;35789;48.414;12.768;2023-02-28T01:00:00;-1.5;99.9
49901;DHT22;35789;48.414;12.768;2023-02-28T01:05:00;-1.5;99.9
49901;DHT22;35789;48.414;12.768;2023-02-28T01:10:00;-1.5;99.9
49901;DHT22;35789;48.414;12.768;2023-02-28T01:15:00;-1.5;99.9
49901;DHT22;35789;48.414;12.768;2023-02-28T01:20:00;-1.5;99.9
49901;DHT22;35789;48.414;12.768;2023-02-28T01:25:00;-1.5;99.9
49901;DHT22;35789;48.414;12.768;2023-02-28T01:30:00;-1.5;99.9
49901;DHT22;35789;48.414;12.768;2023-02-28T01:35:00;-1.5;99.9
49901;DHT22;35789;48.414;12.768;2023-02-28T01:40:00;-1.6;99.9
49901;DHT22;35789;48.414;12.768;2023-02-28T01:45:02;-1.6;99.9
49901;DHT22;35789;48.414;12.768;2023-02-28T01:50:01;-1.6;99.9
49901;DHT22;35789;48.414;12.768;2023-02-28T01:55:01;-1.6;99.9
49901;DHT22;35789;48.414;12.768;2023-02-28T02:00:00;-1.7;99.9
49901;DHT22;35789;48.414;12.768;2023-02-28T02:05:03;-1.7;99.9
49901;DHT22;35789;48.414;12.768;2023-02-28T02:10:01;-1.7;99.9
49901;DHT22;35789;48.414;12.768;2023-02-28T02:15:01;-1.8;99.9
49901;DHT22;35789;48.414;12.768;2023-02-28T02:35:01;-1.8;99.9
49901;DHT22;35789;48.414;12.768;2023-02-28T02:40:02;-1.8;99.9
49901;DHT22;35789;48.414;12.768;2023-02-28T02:45:01;-1.8;99.9
49901;DHT22;35789;48.414;12.768;2023-02-28T02:50:02;-1.8;99.9
49901;DHT22;35789;48.414;12.768;2023-02-28T02:55:00;-1.8;99.9
49901;DHT22;35789;48.414;12.768;2023-02-28T03:00:00;-1.8;99.9
49901;DHT22;35789;48.414;12.768;2023-02-28T03:05:01;-1.8;99.9
49901;DHT22;35789;48.414;12.768;2023-02-28T03:10:00;-1.9;99.9
49901;DHT22;35789;48.414;12.768;2023-02-28T03:15:04;-1.9;99.9
49901;DHT22;35789;48.414;12.768;2023-02-28T03:20:04;-1.9;99.9
49901;DHT22;35789;48.414;12.768;2023-02-28T03:25:01;-1.9;99.9
49901;DHT22;35789;48.414;12.768;2023-02-28T03:30:01;-2.0;99.9
49901;DHT22;35789;48.414;12.768;2023-02-28T03:35:01;-2.0;99.9
49901;DHT22;35789;48.414;12.768;2023-02-28T03:40:01;-1.9;99.9
49901;DHT22;35789;48.414;12.768;2023-02-28T03:45:00;-2.0;99.9
49901;DHT22;35789;48.414;12.768;2023-02-28T03:50:01;-1.9;99.9
49901;DHT22;35789;48.414;12.768;2023-02-28T03:55:02;-1.9;99.9
49901;DHT22;35789;48.414;12.768;2023-02-28T04:00:02;-2.0;99.9
49901;DHT22;35789;48.414;12.768;2023-02-28T04:05:00;-2.0;99.9
49901;DHT22;35789;48.414;12.768;2023-02-28T04:10:00;-2.0;99.9
49901;DHT22;35789;48.414;12.768;2023-02-28T04:15:00;-2.1;99.9
49901;DHT22;35789;48.414;12.768;2023-02-28T04:20:00;-2.1;99.9
49901;DHT22;35789;48.414;12.768;2023-02-28T04:25:00;-2.1;99.9
49901;DHT22;35789;48.414;12.768;2023-02-28T04:30:00;-2.2;99.9
49901;DHT22;35789;48.414;12.768;2023-02-28T04:35:00;-2.1;99.9
49901;DHT22;35789;48.414;12.768;2023-02-28T04:40:00;-2.1;99.9
49901;DHT22;35789;48.414;12.768;2023-02-28T04:45:00;-2.2;99.9
49901;DHT22;35789;48.414;12.768;2023-02-28T04:50:00;-2.1;99.9
49901;DHT22;35789;48.414;12.768;2023-02-28T04:55:00;-2.2;99.9
49901;DHT22;35789;48.414;12.768;2023-02-28T05:00:00;-2.2;99.9
49901;DHT22;35789;48.414;12.768;2023-02-28T05:05:00;-2.3;99.9
49901;DHT22;35789;48.414;12.768;2023-02-28T05:10:00;-2.2;99.9
49901;DHT22;35789;48.414;12.768;2023-02-28T05:15:00;-2.4;99.9
49901;DHT22;35789;48.414;12.768;2023-02-28T05:20:00;-2.3;99.9
49901;DHT22;35789;48.414;12.768;2023-02-28T05:25:00;-2.3;99.9
49901;DHT22;35789;48.414;12.768;2023-02-28T05:30:00;-2.3;99.9
49901;DHT22;35789;48.414;12.768;2023-02-28T05:35:00;-2.2;99.9
49901;DHT22;35789;48.414;12.768;2023-02-28T05:40:00;-2.3;99.9
49901;DHT22;35789;48.414;12.768;2023-02-28T05:45:00;-2.3;99.9
49901;DHT22;35789;48.414;12.768;2023-02-28T05:50:00;-2.3;99.9
49901;DHT22;35789;48.414;12.768;2023-02-28T05:55:00;-2.3;99.9
49901;DHT22;35789;48.414;12.768;2023-02-28T06:00:00;-2.3;99.9
49901;DHT22;35789;48.414;12.768;2023-02-28T06:05:00;-2.3;99.9
49901;DHT22;35789;48.414;12.768;2023-02-28T06:10:00;-2.4;99.9
49901;DHT22;35789;48.414;12.768;2023-02-28T06:15:00;-2.4;99.9
49901;DHT22;35789;48.414;12.768;2023-02-28T06:20:00;-2.4;99.9
49901;DHT22;35789;48.414;12.768;2023-02-28T06:25:00;-2.3;99.9
49901;DHT22;35789;48.414;12.768;2023-02-28T06:30:00;-2.3;99.9
49901;DHT22;35789;48.414;12.768;2023-02-28T06:35:00;-2.3;99.9
49901;DHT22;35789;48.414;12.768;2023-02-28T06:40:00;-2.2;99.9
49901;DHT22;35789;48.414;12.768;2023-02-28T06:45:00;-2.2;99.9
49901;DHT22;35789;48.414;12.768;2023-02-28T06:50:00;-2.1;99.9
49901;DHT22;35789;48.414;12.768;2023-02-28T06:55:00;-2.1;99.9
49901;DHT22;35789;48.414;12.768;2023-02-28T07:00:02;-2.1;99.9
49901;DHT22;35789;48.414;12.768;2023-02-28T07:05:00;-2.1;99.9
49901;DHT22;35789;48.414;12.768;2023-02-28T07:10:00;-2.0;99.9
49901;DHT22;35789;48.414;12.768;2023-02-28T07:15:00;-1.9;99.9
49901;DHT22;35789;48.414;12.768;2023-02-28T07:20:00;-1.9;99.9
49901;DHT22;35789;48.414;12.768;2023-02-28T07:25:00;-1.8;99.9
49901;DHT22;35789;48.414;12.768;2023-02-28T07:30:00;-1.8;99.9
49901;DHT22;35789;48.414;12.768;2023-02-28T07:35:00;-1.7;99.9
49901;DHT22;35789;48.414;12.768;2023-02-28T07:40:00;-1.6;99.9
49901;DHT22;35789;48.414;12.768;2023-02-28T07:45:00;-1.5;99.9
49901;DHT22;35789;48.414;12.768;2023-02-28T07:50:00;-1.4;99.9
49901;DHT22;35789;48.414;12.768;2023-02-28T07:55:00;-1.4;99.9
49901;DHT22;35789;48.414;12.768;2023-02-28T08:00:00;-1.3;99.9
49901;DHT22;35789;48.414;12.768;2023-02-28T08:05:00;-1.2;99.9
49901;DHT22;35789;48.414;12.768;2023-02-28T08:10:00;-1.2;99.9
49901;DHT22;35789;48.414;12.768;2023-02-28T08:15:00;-1.1;99.9
49901;DHT22;35789;48.414;12.768;2023-02-28T08:20:00;-1.0;99.9
49901;DHT22;35789;48.414;12.768;2023-02-28T08:25:00;-0.9;99.9
49901;DHT22;35789;48.414;12.768;2023-02-28T08:30:00;-0.8;99.9
49901;DHT22;35789;48.414;12.768;2023-02-28T08:35:00;-0.7;99.9
49901;DHT22;35789;48.414;12.768;2023-02-28T08:40:00;-0.6;99.9
49901;DHT22;35789;48.414;12.768;2023-02-28T08:45:00;-0.5;99.9
49901;DHT22;35789;48.414;12.768;2023-02-28T08:50:00;-0.4;99.8
49901;DHT22;35789;48.414;12.768;2023-02-28T08:55:00;-0.3;99.9
49901;DHT22;35789;48.414;12.768;2023-02-28T09:00:00;-0.2;99.9
49901;DHT22;35789;48.414;12.768;2023-02-28T09:05:00;-0.2;99.9
49901;DHT22;35789;48.414;12.768;2023-02-28T09:10:00;0.1;99.5
49901;DHT22;35789;48.414;12.768;2023-02-28T09:15:00;0.2;99.6
49901;DHT22;35789;48.414;12.768;2023-02-28T09:20:00;0.3;99.7
49901;DHT22;35789;48.414;12.768;2023-02-28T09:25:00;0.4;99.5
49901;DHT22;35789;48.414;12.768;2023-02-28T09:30:00;0.5;99.9
49901;DHT22;35789;48.414;12.768;2023-02-28T09:35:00;0.5;98.5
49901;DHT22;35789;48.414;12.768;2023-02-28T09:40:00;0.6;98.8
49901;DHT22;35789;48.414;12.768;2023-02-28T09:45:01;0.5;98.3
49901;DHT22;35789;48.414;12.768;2023-02-28T09:50:03;0.7;99.9
49901;DHT22;35789;48.414;12.768;2023-02-28T09:55:01;0.8;99.9
49901;DHT22;35789;48.414;12.768;2023-02-28T10:00:03;0.9;98.9
49901;DHT22;35789;48.414;12.768;2023-02-28T10:05:01;0.9;99.6
49901;DHT22;35789;48.414;12.768;2023-02-28T10:10:01;0.9;99.4
49901;DHT22;35789;48.414;12.768;2023-02-28T10:15:00;1.1;98.4
49901;DHT22;35789;48.414;12.768;2023-02-28T10:20:01;1.1;98.5
49901;DHT22;35789;48.414;12.768;2023-02-28T10:25:00;1.3;99.3
49901;DHT22;35789;48.414;12.768;2023-02-28T10:30:01;1.3;98.4
49901;DHT22;35789;48.414;12.768;2023-02-28T10:35:01;1.3;97.5
49901;DHT22;35789;48.414;12.768;2023-02-28T10:40:00;1.4;98.9
49901;DHT22;35789;48.414;12.768;2023-02-28T10:50:00;1.6;98.2
49901;DHT22;35789;48.414;12.768;2023-02-28T11:00:06;1.7;98.3
49901;DHT22;35789;48.414;12.768;2023-02-28T11:05:00;1.8;97.6
49901;DHT22;35789;48.414;12.768;2023-02-28T11:10:00;1.9;98.6
49901;DHT22;35789;48.414;12.768;2023-02-28T11:15:01;2.1;98.4
49901;DHT22;35789;48.414;12.768;2023-02-28T11:20:01;2.1;96.9
49901;DHT22;35789;48.414;12.768;2023-02-28T11:25:01;2.1;97.5
49901;DHT22;35789;48.414;12.768;2023-02-28T11:30:00;2.1;97.5
49901;DHT22;35789;48.414;12.768;2023-02-28T11:35:01;2.0;97.2
49901;DHT22;35789;48.414;12.768;2023-02-28T11:40:00;2.1;97.4
49901;DHT22;35789;48.414;12.768;2023-02-28T11:45:09;2.2;98.6
49901;DHT22;35789;48.414;12.768;2023-02-28T11:50:04;2.2;97.7
49901;DHT22;35789;48.414;12.768;2023-02-28T11:55:03;2.3;97.1
49901;DHT22;35789;48.414;12.768;2023-02-28T12:00:03;2.3;98.7
49901;DHT22;35789;48.414;12.768;2023-02-28T12:05:05;2.4;97.2
49901;DHT22;35789;48.414;12.768;2023-02-28T12:10:02;2.4;97.3
49901;DHT22;35789;48.414;12.768;2023-02-28T12:15:04;2.5;97.3
49901;DHT22;35789;48.414;12.768;2023-02-28T12:20:02;2.4;97.9
49901;DHT22;35789;48.414;12.768;2023-02-28T12:30:01;2.5;97.2
49901;DHT22;35789;48.414;12.768;2023-02-28T12:35:01;2.7;98.5
49901;DHT22;35789;48.414;12.768;2023-02-28T12:40:01;2.6;97.4
49901;DHT22;35789;48.414;12.768;2023-02-28T12:45:01;2.6;98.1
49901;DHT22;35789;48.414;12.768;2023-02-28T12:50:02;2.6;99.0
49901;DHT22;35789;48.414;12.768;2023-02-28T12:55:02;2.7;97.7
49901;DHT22;35789;48.414;12.768;2023-02-28T13:00:01;2.7;97.7
49901;DHT22;35789;48.414;12.768;2023-02-28T13:05:04;2.8;98.2
49901;DHT22;35789;48.414;12.768;2023-02-28T13:10:00;2.9;97.4
49901;DHT22;35789;48.414;12.768;2023-02-28T13:15:04;2.9;97.2
49901;DHT22;35789;48.414;12.768;2023-02-28T13:20:01;2.9;97.0
49901;DHT22;35789;48.414;12.768;2023-02-28T13:25:00;2.9;99.2
49901;DHT22;35789;48.414;12.768;2023-02-28T13:30:00;2.9;97.2
49901;DHT22;35789;48.414;12.768;2023-02-28T13:40:06;2.8;97.8
49901;DHT22;35789;48.414;12.768;2023-02-28T13:55:09;2.8;97.8
49901;DHT22;35789;48.414;12.768;2023-02-28T14:00:04;2.7;98.0
49901;DHT22;35789;48.414;12.768;2023-02-28T14:05:01;2.8;98.1
49901;DHT22;35789;48.414;12.768;2023-02-28T14:10:01;2.9;97.9
49901;DHT22;35789;48.414;12.768;2023-02-28T14:15:00;3.0;97.0
49901;DHT22;35789;48.414;12.768;2023-02-28T14:20:00;3.0;98.9
49901;DHT22;35789;48.414;12.768;2023-02-28T14:25:05;3.0;98.1
49901;DHT22;35789;48.414;12.768;2023-02-28T14:30:04;2.9;98.1
49901;DHT22;35789;48.414;12.768;2023-02-28T14:35:02;3.1;98.2
49901;DHT22;35789;48.414;12.768;2023-02-28T14:40:00;3.3;98.3
49901;DHT22;35789;48.414;12.768;2023-02-28T14:45:00;3.3;97.5
49901;DHT22;35789;48.414;12.768;2023-02-28T14:50:00;3.1;98.4
49901;DHT22;35789;48.414;12.768;2023-02-28T14:55:03;3.2;97.8
49901;DHT22;35789;48.414;12.768;2023-02-28T15:00:01;3.3;98.6
49901;DHT22;35789;48.414;12.768;2023-02-28T15:05:01;3.3;98.3
49901;DHT22;35789;48.414;12.768;2023-02-28T15:10:09;3.2;98.0
49901;DHT22;35789;48.414;12.768;2023-02-28T15:15:00;3.0;98.5
49901;DHT22;35789;48.414;12.768;2023-02-28T15:20:00;2.8;99.5
49901;DHT22;35789;48.414;12.768;2023-02-28T15:25:00;2.7;99.1
49901;DHT22;35789;48.414;12.768;2023-02-28T15:30:05;2.7;99.1
49901;DHT22;35789;48.414;12.768;2023-02-28T15:40:05;2.8;98.5
49901;DHT22;35789;48.414;12.768;2023-02-28T15:45:00;2.8;98.2
49901;DHT22;35789;48.414;12.768;2023-02-28T15:50:01;2.8;98.8
49901;DHT22;35789;48.414;12.768;2023-02-28T15:55:06;2.7;98.7
49901;DHT22;35789;48.414;12.768;2023-02-28T16:00:01;2.7;98.9
49901;DHT22;35789;48.414;12.768;2023-02-28T16:05:02;2.6;98.8
49901;DHT22;35789;48.414;12.768;2023-02-28T16:10:00;2.5;99.9
49901;DHT22;35789;48.414;12.768;2023-02-28T16:15:01;2.5;99.9
49901;DHT22;35789;48.414;12.768;2023-02-28T16:20:00;2.4;99.9
49901;DHT22;35789;48.414;12.768;2023-02-28T16:25:00;2.4;99.8
49901;DHT22;35789;48.414;12.768;2023-02-28T16:30:00;2.5;99.8
49901;DHT22;35789;48.414;12.768;2023-02-28T16:35:00;2.5;99.9
49901;DHT22;35789;48.414;12.768;2023-02-28T16:40:00;2.4;99.2
49901;DHT22;35789;48.414;12.768;2023-02-28T16:45:00;2.3;99.9
49901;DHT22;35789;48.414;12.768;2023-02-28T16:50:00;2.3;99.9
49901;DHT22;35789;48.414;12.768;2023-02-28T16:55:00;unavailable;unavailable
49901;DHT22;35789;48.414;12.768;2023-02-28T17:00:00;2.2;99.4
49901;DHT22;35789;48.414;12.768;2023-02-28T17:05:00;2.1;99.9
49901;DHT22;35789;48.414;12.768;2023-02-28T17:10:00;2.1;99.9
49901;DHT22;35789;48.414;12.768;2023-02-28T17:15:00;2.0;99.9
49901;DHT22;35789;48.414;12.768;2023-02-28T17:20:00;1.9;99.9
49901;DHT22;35789;48.414;12.768;2023-02-28T17:25:00;2.0;99.9
49901;DHT22;35789;48.414;12.768;2023-02-28T17:30:00;2.0;99.9
49901;DHT22;35789;48.414;12.768;2023-02-28T17:35:00;2.0;99.9
49901;DHT22;35789;48.414;12.768;2023-02-28T17:40:00;2.0;99.9
49901;DHT22;35789;48.414;12.768;2023-02-28T17:45:00;2.0;99.9
49901;DHT22;35789;48.414;12.768;2023-02-28T17:50:00;1.9;99.9
49901;DHT22;35789;48.414;12.768;2023-02-28T17:55:00;2.0;99.8
49901;DHT22;35789;48.414;12.768;2023-02-28T18:00:00;1.9;99.9
49901;DHT22;35789;48.414;12.768;2023-02-28T18:05:00;1.9;99.9
49901;DHT22;35789;48.414;12.768;2023-02-28T18:10:00;1.9;99.9
49901;DHT22;35789;48.414;12.768;2023-02-28T18:15:00;1.9;99.9
49901;DHT22;35789;48.414;12.768;2023-02-28T18:20:00;1.8;99.9
49901;DHT22;35789;48.414;12.768;2023-02-28T18:25:00;1.8;99.9
49901;DHT22;35789;48.414;12.768;2023-02-28T18:30:00;1.8;99.9
49901;DHT22;35789;48.414;12.768;2023-02-28T18:35:00;1.8;99.9
49901;DHT22;35789;48.414;12.768;2023-02-28T18:40:00;1.7;99.9
49901;DHT22;35789;48.414;12.768;2023-02-28T18:45:00;1.7;99.9
49901;DHT22;35789;48.414;12.768;2023-02-28T18:50:00;1.8;99.9
49901;DHT22;35789;48.414;12.768;2023-02-28T18:55:00;1.8;99.9
49901;DHT22;35789;48.414;12.768;2023-02-28T19:00:00;1.7;99.9
49901;DHT22;35789;48.414;12.768;2023-02-28T19:05:00;1.7;99.9
49901;DHT22;35789;48.414;12.768;2023-02-28T19:10:00;1.7;99.9
49901;DHT22;35789;48.414;12.768;2023-02-28T19:15:00;1.7;99.9
49901;DHT22;35789;48.414;12.768;2023-02-28T19:20:00;1.7;99.9
49901;DHT22;35789;48.414;12.768;2023-02-28T19:25:00;1.7;99.9
49901;DHT22;35789;48.414;12.768;2023-02-28T19:30:00;1.7;99.9
49901;DHT22;35789;48.414;12.768;2023-02-28T19:35:00;1.7;99.9
49901;DHT22;35789;48.414;12.768;2023-02-28T19:40:00;1.6;99.9
49901;DHT22;35789;48.414;12.768;2023-02-28T19:45:00;1.6;99.9
49901;DHT22;35789;48.414;12.768;2023-02-28T19:50:00;1.6;99.9
49901;DHT22;35789;48.414;12.768;2023-02-28T19:55:00;1.6;99.9
49901;DHT22;35789;48.414;12.768;2023-02-28T20:00:00;1.6;99.9
49901;DHT22;35789;48.414;12.768;2023-02-28T20:05:00;1.6;99.9
49901;DHT22;35789;48.414;12.768;2023-02-28T20:10:00;1.6;99.9
49901;DHT22;35789;48.414;12.768;2023-02-28T20:15:00;1.6;99.9
49901;DHT22;35789;48.414;12.768;2023-02-28T20:20:00;1.6;99.9
49901;DHT22;35789;48.414;12.768;2023-02-28T20:25:00;1.6;99.9
49901;DHT22;35789;48.414;12.768;2023-02-28T20:30:00;1.6;99.9
49901;DHT22;35789;48.414;12.768;2023-02-28T20:35:00;1.6;99.9
49901;DHT22;35789;48.414;12.768;2023-02-28T20:40:00;1.5;99.9
49901;DHT22;35789;48.414;12.768;2023-02-28T20:45:00;1.5;99.9
49901;DHT22;35789;48.414;12.768;2023-02-28T20:50:00;1.5;99.9
49901;DHT22;35789;48.414;12.768;2023-02-28T20:55:00;1.6;99.9
49901;DHT22;35789;48.414;12.768;2023-02-28T21:00:00;1.6;99.9
49901;DHT22;35789;48.414;12.768;2023-02-28T21:05:00;1.6;99.9
49901;DHT22;35789;48.414;12.768;2023-02-28T21:10:00;1.5;99.9
49901;DHT22;35789;48.414;12.768;2023-02-28T21:15:03;1.5;99.9
49901;DHT22;35789;48.414;12.768;2023-02-28T21:20:00;1.5;99.9
49901;DHT22;35789;48.414;12.768;2023-02-28T21:25:00;1.5;99.9
49901;DHT22;35789;48.414;12.768;2023-02-28T21:30:00;1.5;99.9
49901;DHT22;35789;48.414;12.768;2023-02-28T21:35:00;1.5;99.9
49901;DHT22;35789;48.414;12.768;2023-02-28T21:40:00;1.5;99.9
49901;DHT22;35789;48.414;12.768;2023-02-28T21:45:00;1.5;99.9
49901;DHT22;35789;48.414;12.768;2023-02-28T21:50:00;1.5;99.9
49901;DHT22;35789;48.414;12.768;2023-02-28T21:55:00;1.5;99.9
49901;DHT22;35789;48.414;12.768;2023-02-28T22:00:00;1.5;99.9
49901;DHT22;35789;48.414;12.768;2023-02-28T22:05:00;1.5;99.9
49901;DHT22;35789;48.414;12.768;2023-02-28T22:10:00;1.5;99.9
49901;DHT22;35789;48.414;12.768;2023-02-28T22:15:00;1.5;99.9
49901;DHT22;35789;48.414;12.768;2023-02-28T22:20:00;1.5;99.9
49901;DHT22;35789;48.414;12.768;2023-02-28T22:25:00;1.4;99.9
49901;DHT22;35789;48.414;12.768;2023-02-28T22:30:00;1.4;99.9
49901;DHT22;35789;48.414;12.768;2023-02-28T22:35:00;1.5;99.9
49901;DHT22;35789;48.414;12.768;2023-02-28T22:40:00;1.4;99.9
49901;DHT22;35789;48.414;12.768;2023-02-28T22:45:00;1.4;99.9
49901;DHT22;35789;48.414;12.768;2023-02-28T22:50:00;1.5;99.9
49901;DHT22;35789;48.414;12.768;2023-02-28T22:55:00;1.5;99.9
49901;DHT22;35789;48.414;12.768;2023-02-28T23:00:00;1.5;99.9
49901;DHT22;35789;48.414;12.768;2023-02-28T23:05:00;1.5;99.9
49901;DHT22;35789;48.414;12.768;2023-02-28T23:10:02;1.4;99.9
49901;DHT22;35789;48.414;12.768;2023-02-28T23:15:00;1.4;99.9
49901;DHT22;35789;48.414;12.768;2023-02-28T23:20:00;1.4;99.9
49901;DHT22;35789;48.414;12.768;2023-02-28T23:25:00;1.4;99.9
49901;DHT22;35789;48.414;12.768;2023-02-28T23:30:00;1.5;99.9
49901;DHT22;35789;48.414;12.768;2023-02-28T23:35:00;1.4;99.9
49901;DHT22;35789;48.414;12.768;2023-02-28T23:40:00;1.4;99.9
49901;DHT22;35789;48.414;12.768;2023-02-28T23:45:00;1.3;99.9
49901;DHT22;35789;48.414;12.768;2023-02-28T23:50:00;1.2;99.9
49901;DHT22;35789;48.414;12.768;2023-02-28T23:55:00;1.0;99.9
